sensor_id;sensor_type;location;lat;lon;timestamp;noise_LAeq;noise_LA_min;noise_LA_max;noise_LA01;noise_LA95
63692;Laerm;49838;51.798;10.954;2023-06-26T00:01:11;44.00;31.86;68.32;;
63692;Laerm;49838;51.798;10.954;2023-06-26T00:03:39;38.33;32.73;49.19;;
63692;Laerm;49838;51.798;10.954;2023-06-26T00:06:06;39.24;33.00;49.41;;
63692;Laerm;49838;51.798;10.954;2023-06-26T00:08:33;38.78;33.43;46.75;;
63692;Laerm;49838;51.798;10.954;2023-06-26T00:11:00;38.71;32.70;54.73;;
63692;Laerm;49838;51.798;10.954;2023-06-26T00:13:29;37.43;31.69;45.63;;
63692;Laerm;49838;51.798;10.954;2023-06-26T00:15:56;36.96;31.74;49.47;;
63692;Laerm;49838;51.798;10.954;2023-06-26T00:18:26;37.29;31.11;47.13;;
63692;Laerm;49838;51.798;10.954;2023-06-26T00:20:53;35.69;30.10;49.52;;
63692;Laerm;49838;51.798;10.954;2023-06-26T00:23:20;38.83;32.13;48.29;;
63692;Laerm;49838;51.798;10.954;2023-06-26T00:25:48;38.68;31.51;60.60;;
63692;Laerm;49838;51.798;10.954;2023-06-26T00:28:15;38.52;33.11;53.23;;
63692;Laerm;49838;51.798;10.954;2023-06-26T00:30:43;37.37;32.21;57.13;;
63692;Laerm;49838;51.798;10.954;2023-06-26T00:33:11;39.15;32.63;45.82;;
63692;Laerm;49838;51.798;10.954;2023-06-26T00:35:38;37.65;31.95;51.10;;
63692;Laerm;49838;51.798;10.954;2023-06-26T00:38:05;39.17;33.37;47.64;;
63692;Laerm;49838;51.798;10.954;2023-06-26T00:40:32;37.22;31.16;54.56;;
63692;Laerm;49838;51.798;10.954;2023-06-26T00:43:00;37.63;32.67;43.96;;
63692;Laerm;49838;51.798;10.954;2023-06-26T00:45:28;40.02;34.54;51.67;;
63692;Laerm;49838;51.798;10.954;2023-06-26T00:47:57;37.91;32.88;50.78;;
63692;Laerm;49838;51.798;10.954;2023-06-26T00:50:24;36.49;31.74;45.91;;
63692;Laerm;49838;51.798;10.954;2023-06-26T00:52:53;38.90;33.14;47.86;;
63692;Laerm;49838;51.798;10.954;2023-06-26T00:55:22;40.60;34.30;54.04;;
63692;Laerm;49838;51.798;10.954;2023-06-26T00:57:50;40.50;33.58;56.76;;
63692;Laerm;49838;51.798;10.954;2023-06-26T01:00:17;40.22;34.30;47.56;;
63692;Laerm;49838;51.798;10.954;2023-06-26T01:02:45;39.44;32.13;48.80;;
63692;Laerm;49838;51.798;10.954;2023-06-26T01:05:14;39.62;33.68;54.74;;
63692;Laerm;49838;51.798;10.954;2023-06-26T01:07:47;39.61;33.29;52.63;;
63692;Laerm;49838;51.798;10.954;2023-06-26T01:10:15;38.13;33.28;54.60;;
63692;Laerm;49838;51.798;10.954;2023-06-26T01:12:43;38.36;33.44;49.28;;
63692;Laerm;49838;51.798;10.954;2023-06-26T01:15:10;38.55;32.94;44.53;;
63692;Laerm;49838;51.798;10.954;2023-06-26T01:17:38;37.06;32.47;50.58;;
63692;Laerm;49838;51.798;10.954;2023-06-26T01:20:12;38.38;32.84;44.07;;
63692;Laerm;49838;51.798;10.954;2023-06-26T01:22:45;39.09;32.36;49.67;;
63692;Laerm;49838;51.798;10.954;2023-06-26T01:25:20;40.11;32.91;57.88;;
63692;Laerm;49838;51.798;10.954;2023-06-26T01:27:52;39.15;33.57;46.27;;
63692;Laerm;49838;51.798;10.954;2023-06-26T01:30:21;39.16;33.91;47.04;;
63692;Laerm;49838;51.798;10.954;2023-06-26T01:32:49;38.76;33.13;57.37;;
63692;Laerm;49838;51.798;10.954;2023-06-26T01:35:17;39.00;33.18;45.26;;
63692;Laerm;49838;51.798;10.954;2023-06-26T01:37:44;39.32;32.64;43.95;;
63692;Laerm;49838;51.798;10.954;2023-06-26T01:40:11;38.53;31.26;59.37;;
63692;Laerm;49838;51.798;10.954;2023-06-26T01:42:39;41.81;32.02;59.54;;
63692;Laerm;49838;51.798;10.954;2023-06-26T01:45:12;46.43;32.57;61.48;;
63692;Laerm;49838;51.798;10.954;2023-06-26T01:47:46;48.09;33.62;63.76;;
63692;Laerm;49838;51.798;10.954;2023-06-26T01:50:18;47.95;32.47;66.83;;
63692;Laerm;49838;51.798;10.954;2023-06-26T01:52:53;52.13;34.35;72.03;;
63692;Laerm;49838;51.798;10.954;2023-06-26T01:55:31;54.98;32.80;74.76;;
63692;Laerm;49838;51.798;10.954;2023-06-26T01:58:02;46.80;34.03;62.17;;
63692;Laerm;49838;51.798;10.954;2023-06-26T02:00:32;45.74;33.16;59.33;;
63692;Laerm;49838;51.798;10.954;2023-06-26T02:03:00;45.96;33.23;58.80;;
63692;Laerm;49838;51.798;10.954;2023-06-26T02:05:27;46.33;34.38;60.31;;
63692;Laerm;49838;51.798;10.954;2023-06-26T02:07:56;46.26;34.84;59.06;;
63692;Laerm;49838;51.798;10.954;2023-06-26T02:10:24;46.44;34.73;60.20;;
63692;Laerm;49838;51.798;10.954;2023-06-26T02:12:51;49.96;36.42;65.33;;
63692;Laerm;49838;51.798;10.954;2023-06-26T02:15:18;42.81;35.73;54.31;;
63692;Laerm;49838;51.798;10.954;2023-06-26T02:17:47;48.63;35.76;66.16;;
63692;Laerm;49838;51.798;10.954;2023-06-26T02:20:15;47.73;37.45;65.27;;
63692;Laerm;49838;51.798;10.954;2023-06-26T02:22:42;44.41;36.05;60.11;;
63692;Laerm;49838;51.798;10.954;2023-06-26T02:25:10;48.55;34.76;62.18;;
63692;Laerm;49838;51.798;10.954;2023-06-26T02:27:38;44.90;33.67;55.35;;
63692;Laerm;49838;51.798;10.954;2023-06-26T02:30:07;50.44;33.67;67.75;;
63692;Laerm;49838;51.798;10.954;2023-06-26T02:32:34;45.21;34.37;57.84;;
63692;Laerm;49838;51.798;10.954;2023-06-26T02:35:04;42.58;32.95;57.54;;
63692;Laerm;49838;51.798;10.954;2023-06-26T02:37:31;42.17;35.34;52.61;;
63692;Laerm;49838;51.798;10.954;2023-06-26T02:39:58;39.58;33.69;47.35;;
63692;Laerm;49838;51.798;10.954;2023-06-26T02:42:26;38.93;32.80;47.69;;
63692;Laerm;49838;51.798;10.954;2023-06-26T02:44:53;40.01;33.65;56.21;;
63692;Laerm;49838;51.798;10.954;2023-06-26T02:47:20;39.51;34.15;48.75;;
63692;Laerm;49838;51.798;10.954;2023-06-26T02:49:47;39.43;33.88;47.43;;
63692;Laerm;49838;51.798;10.954;2023-06-26T02:52:16;39.00;33.14;48.00;;
63692;Laerm;49838;51.798;10.954;2023-06-26T02:54:45;37.09;32.71;46.47;;
63692;Laerm;49838;51.798;10.954;2023-06-26T02:57:12;37.99;32.58;50.03;;
63692;Laerm;49838;51.798;10.954;2023-06-26T02:59:40;39.98;33.11;56.07;;
63692;Laerm;49838;51.798;10.954;2023-06-26T03:02:08;41.08;33.42;59.30;;
63692;Laerm;49838;51.798;10.954;2023-06-26T03:04:35;39.88;33.57;56.53;;
63692;Laerm;49838;51.798;10.954;2023-06-26T03:07:03;39.72;34.04;46.60;;
63692;Laerm;49838;51.798;10.954;2023-06-26T03:09:31;41.20;33.89;55.90;;
63692;Laerm;49838;51.798;10.954;2023-06-26T03:11:59;46.28;34.32;61.89;;
63692;Laerm;49838;51.798;10.954;2023-06-26T03:14:26;47.21;35.07;60.91;;
63692;Laerm;49838;51.798;10.954;2023-06-26T03:16:54;46.88;34.87;59.65;;
63692;Laerm;49838;51.798;10.954;2023-06-26T03:19:23;56.51;35.08;73.81;;
63692;Laerm;49838;51.798;10.954;2023-06-26T03:21:51;46.70;36.26;61.69;;
63692;Laerm;49838;51.798;10.954;2023-06-26T03:24:18;42.12;36.00;58.32;;
63692;Laerm;49838;51.798;10.954;2023-06-26T03:26:47;48.81;37.16;62.25;;
63692;Laerm;49838;51.798;10.954;2023-06-26T03:29:14;52.20;36.62;69.16;;
63692;Laerm;49838;51.798;10.954;2023-06-26T03:31:41;56.33;36.85;70.92;;
63692;Laerm;49838;51.798;10.954;2023-06-26T03:34:08;47.50;36.79;61.63;;
63692;Laerm;49838;51.798;10.954;2023-06-26T03:36:36;51.94;35.90;68.07;;
63692;Laerm;49838;51.798;10.954;2023-06-26T03:39:03;42.20;36.51;56.29;;
63692;Laerm;49838;51.798;10.954;2023-06-26T03:41:30;46.06;36.31;60.09;;
63692;Laerm;49838;51.798;10.954;2023-06-26T03:43:59;41.43;34.96;51.99;;
63692;Laerm;49838;51.798;10.954;2023-06-26T03:46:28;54.74;35.83;69.61;;
63692;Laerm;49838;51.798;10.954;2023-06-26T03:48:55;42.06;35.61;50.64;;
63692;Laerm;49838;51.798;10.954;2023-06-26T03:51:23;53.39;37.65;68.62;;
63692;Laerm;49838;51.798;10.954;2023-06-26T03:53:50;60.68;36.36;78.80;;
63692;Laerm;49838;51.798;10.954;2023-06-26T03:56:17;58.24;36.71;77.45;;
63692;Laerm;49838;51.798;10.954;2023-06-26T03:58:44;53.82;35.93;75.10;;
63692;Laerm;49838;51.798;10.954;2023-06-26T04:01:13;56.73;35.93;72.76;;
63692;Laerm;49838;51.798;10.954;2023-06-26T04:03:40;51.30;36.69;67.85;;
63692;Laerm;49838;51.798;10.954;2023-06-26T04:06:07;52.96;36.95;71.74;;
63692;Laerm;49838;51.798;10.954;2023-06-26T04:08:35;55.35;36.78;72.94;;
63692;Laerm;49838;51.798;10.954;2023-06-26T04:11:03;41.48;36.37;53.36;;
63692;Laerm;49838;51.798;10.954;2023-06-26T04:13:30;49.50;37.39;67.42;;
63692;Laerm;49838;51.798;10.954;2023-06-26T04:15:57;42.65;36.37;56.45;;
63692;Laerm;49838;51.798;10.954;2023-06-26T04:18:26;57.25;36.59;74.37;;
63692;Laerm;49838;51.798;10.954;2023-06-26T04:21:10;47.60;39.18;63.54;;
63692;Laerm;49838;51.798;10.954;2023-06-26T04:23:38;51.82;38.58;70.84;;
63692;Laerm;49838;51.798;10.954;2023-06-26T04:26:06;45.06;37.29;63.47;;
63692;Laerm;49838;51.798;10.954;2023-06-26T04:28:34;55.14;38.02;69.72;;
63692;Laerm;49838;51.798;10.954;2023-06-26T04:31:02;55.01;38.71;71.24;;
63692;Laerm;49838;51.798;10.954;2023-06-26T04:33:31;60.61;39.05;79.12;;
63692;Laerm;49838;51.798;10.954;2023-06-26T04:35:59;42.92;36.22;64.47;;
63692;Laerm;49838;51.798;10.954;2023-06-26T04:38:30;58.07;38.70;71.87;;
63692;Laerm;49838;51.798;10.954;2023-06-26T04:40:57;58.35;38.15;77.15;;
63692;Laerm;49838;51.798;10.954;2023-06-26T04:43:24;46.98;38.51;62.94;;
63692;Laerm;49838;51.798;10.954;2023-06-26T04:45:52;55.68;38.72;72.76;;
63692;Laerm;49838;51.798;10.954;2023-06-26T04:48:19;61.08;37.98;80.50;;
63692;Laerm;49838;51.798;10.954;2023-06-26T04:50:48;55.11;38.04;73.48;;
63692;Laerm;49838;51.798;10.954;2023-06-26T04:53:20;59.41;38.85;73.33;;
63692;Laerm;49838;51.798;10.954;2023-06-26T04:55:48;56.80;40.36;69.66;;
63692;Laerm;49838;51.798;10.954;2023-06-26T04:58:16;57.43;38.56;72.20;;
63692;Laerm;49838;51.798;10.954;2023-06-26T05:00:43;56.59;39.17;72.76;;
63692;Laerm;49838;51.798;10.954;2023-06-26T05:03:11;57.03;38.35;72.23;;
63692;Laerm;49838;51.798;10.954;2023-06-26T05:05:39;59.74;39.04;75.14;;
63692;Laerm;49838;51.798;10.954;2023-06-26T05:08:15;57.16;39.52;72.39;;
63692;Laerm;49838;51.798;10.954;2023-06-26T05:10:43;56.83;38.61;75.24;;
63692;Laerm;49838;51.798;10.954;2023-06-26T05:13:11;59.95;38.83;73.23;;
63692;Laerm;49838;51.798;10.954;2023-06-26T05:15:41;56.09;39.73;75.55;;
63692;Laerm;49838;51.798;10.954;2023-06-26T05:18:09;55.58;37.26;72.49;;
63692;Laerm;49838;51.798;10.954;2023-06-26T05:20:36;57.94;40.46;69.86;;
63692;Laerm;49838;51.798;10.954;2023-06-26T05:23:04;63.33;45.09;79.79;;
63692;Laerm;49838;51.798;10.954;2023-06-26T05:25:34;61.90;38.65;73.75;;
63692;Laerm;49838;51.798;10.954;2023-06-26T05:28:02;62.60;42.91;80.58;;
63692;Laerm;49838;51.798;10.954;2023-06-26T05:30:32;58.20;39.94;70.28;;
63692;Laerm;49838;51.798;10.954;2023-06-26T05:33:02;59.47;46.96;75.33;;
63692;Laerm;49838;51.798;10.954;2023-06-26T05:35:30;62.39;41.06;75.02;;
63692;Laerm;49838;51.798;10.954;2023-06-26T05:37:57;54.66;38.45;69.09;;
63692;Laerm;49838;51.798;10.954;2023-06-26T05:40:26;54.61;39.08;67.71;;
63692;Laerm;49838;51.798;10.954;2023-06-26T05:42:55;59.62;37.78;78.35;;
63692;Laerm;49838;51.798;10.954;2023-06-26T05:45:22;62.21;38.96;80.80;;
63692;Laerm;49838;51.798;10.954;2023-06-26T05:47:50;56.18;39.99;74.35;;
63692;Laerm;49838;51.798;10.954;2023-06-26T05:50:18;55.65;39.51;72.14;;
63692;Laerm;49838;51.798;10.954;2023-06-26T05:52:46;53.83;39.74;70.92;;
63692;Laerm;49838;51.798;10.954;2023-06-26T05:55:17;58.94;39.72;71.22;;
63692;Laerm;49838;51.798;10.954;2023-06-26T05:57:46;58.18;39.23;74.43;;
63692;Laerm;49838;51.798;10.954;2023-06-26T06:00:15;58.41;39.67;72.41;;
63692;Laerm;49838;51.798;10.954;2023-06-26T06:02:43;54.19;41.27;70.61;;
63692;Laerm;49838;51.798;10.954;2023-06-26T06:05:10;57.04;39.12;71.63;;
63692;Laerm;49838;51.798;10.954;2023-06-26T06:07:37;56.09;38.30;70.85;;
63692;Laerm;49838;51.798;10.954;2023-06-26T06:10:05;59.94;41.72;71.91;;
63692;Laerm;49838;51.798;10.954;2023-06-26T06:12:33;52.26;39.23;65.65;;
63692;Laerm;49838;51.798;10.954;2023-06-26T06:15:01;54.69;38.94;68.85;;
63692;Laerm;49838;51.798;10.954;2023-06-26T06:17:29;58.81;41.27;71.49;;
63692;Laerm;49838;51.798;10.954;2023-06-26T06:19:57;54.78;39.64;69.48;;
63692;Laerm;49838;51.798;10.954;2023-06-26T06:22:24;59.66;38.80;73.66;;
63692;Laerm;49838;51.798;10.954;2023-06-26T06:24:52;54.84;38.34;71.20;;
63692;Laerm;49838;51.798;10.954;2023-06-26T06:27:19;51.50;38.06;66.81;;
63692;Laerm;49838;51.798;10.954;2023-06-26T06:29:46;53.91;38.36;70.03;;
63692;Laerm;49838;51.798;10.954;2023-06-26T06:32:14;61.12;37.42;80.19;;
63692;Laerm;49838;51.798;10.954;2023-06-26T06:34:43;60.88;39.31;74.07;;
63692;Laerm;49838;51.798;10.954;2023-06-26T06:37:10;55.22;38.84;80.05;;
63692;Laerm;49838;51.798;10.954;2023-06-26T06:39:37;53.74;37.31;70.05;;
63692;Laerm;49838;51.798;10.954;2023-06-26T06:42:05;55.20;36.37;70.81;;
63692;Laerm;49838;51.798;10.954;2023-06-26T06:44:32;45.38;37.69;59.87;;
63692;Laerm;49838;51.798;10.954;2023-06-26T06:47:00;53.54;37.60;70.14;;
63692;Laerm;49838;51.798;10.954;2023-06-26T06:49:30;51.88;38.31;68.99;;
63692;Laerm;49838;51.798;10.954;2023-06-26T06:51:59;55.32;40.63;70.73;;
63692;Laerm;49838;51.798;10.954;2023-06-26T06:54:27;52.86;36.87;69.13;;
63692;Laerm;49838;51.798;10.954;2023-06-26T06:56:54;58.27;39.06;71.54;;
63692;Laerm;49838;51.798;10.954;2023-06-26T06:59:22;62.31;37.60;78.47;;
63692;Laerm;49838;51.798;10.954;2023-06-26T07:01:49;53.12;36.64;77.51;;
63692;Laerm;49838;51.798;10.954;2023-06-26T07:04:17;62.13;38.02;75.83;;
63692;Laerm;49838;51.798;10.954;2023-06-26T07:06:44;59.12;39.90;83.77;;
63692;Laerm;49838;51.798;10.954;2023-06-26T07:09:13;58.18;37.04;73.83;;
63692;Laerm;49838;51.798;10.954;2023-06-26T07:11:41;59.63;39.34;74.08;;
63692;Laerm;49838;51.798;10.954;2023-06-26T07:14:08;62.36;37.32;83.88;;
63692;Laerm;49838;51.798;10.954;2023-06-26T07:16:35;59.77;38.67;77.59;;
63692;Laerm;49838;51.798;10.954;2023-06-26T07:19:02;59.16;40.23;73.66;;
63692;Laerm;49838;51.798;10.954;2023-06-26T07:21:30;59.02;40.69;76.49;;
63692;Laerm;49838;51.798;10.954;2023-06-26T07:23:57;52.35;38.18;68.60;;
63692;Laerm;49838;51.798;10.954;2023-06-26T07:26:25;53.36;37.79;70.85;;
63692;Laerm;49838;51.798;10.954;2023-06-26T07:28:53;59.26;40.39;82.05;;
63692;Laerm;49838;51.798;10.954;2023-06-26T07:31:22;58.10;41.82;77.54;;
63692;Laerm;49838;51.798;10.954;2023-06-26T07:33:49;57.85;38.24;75.61;;
63692;Laerm;49838;51.798;10.954;2023-06-26T07:36:17;58.39;40.59;73.91;;
63692;Laerm;49838;51.798;10.954;2023-06-26T07:38:44;57.09;41.97;73.50;;
63692;Laerm;49838;51.798;10.954;2023-06-26T07:41:11;57.63;42.60;69.32;;
63692;Laerm;49838;51.798;10.954;2023-06-26T07:43:40;63.00;43.42;81.73;;
63692;Laerm;49838;51.798;10.954;2023-06-26T07:46:07;59.19;41.64;77.22;;
63692;Laerm;49838;51.798;10.954;2023-06-26T07:48:34;59.75;41.95;73.50;;
63692;Laerm;49838;51.798;10.954;2023-06-26T07:51:02;57.56;43.36;73.39;;
63692;Laerm;49838;51.798;10.954;2023-06-26T07:53:29;59.95;40.61;82.77;;
63692;Laerm;49838;51.798;10.954;2023-06-26T07:55:56;57.39;41.03;71.34;;
63692;Laerm;49838;51.798;10.954;2023-06-26T07:58:24;58.99;43.72;68.79;;
63692;Laerm;49838;51.798;10.954;2023-06-26T08:00:53;56.80;41.46;70.27;;
63692;Laerm;49838;51.798;10.954;2023-06-26T08:03:20;59.53;42.40;71.63;;
63692;Laerm;49838;51.798;10.954;2023-06-26T08:05:47;49.66;39.98;63.41;;
63692;Laerm;49838;51.798;10.954;2023-06-26T08:08:15;60.57;42.32;80.10;;
63692;Laerm;49838;51.798;10.954;2023-06-26T08:10:42;57.63;40.96;79.31;;
63692;Laerm;49838;51.798;10.954;2023-06-26T08:13:09;56.02;40.32;72.65;;
63692;Laerm;49838;51.798;10.954;2023-06-26T08:15:36;60.69;38.68;75.58;;
63692;Laerm;49838;51.798;10.954;2023-06-26T08:18:06;59.81;43.89;71.53;;
63692;Laerm;49838;51.798;10.954;2023-06-26T08:20:33;58.75;41.63;78.76;;
63692;Laerm;49838;51.798;10.954;2023-06-26T08:23:01;49.57;39.26;65.02;;
63692;Laerm;49838;51.798;10.954;2023-06-26T08:25:29;59.88;39.77;75.28;;
63692;Laerm;49838;51.798;10.954;2023-06-26T08:27:56;55.87;40.76;69.29;;
63692;Laerm;49838;51.798;10.954;2023-06-26T08:30:23;55.04;39.68;69.51;;
63692;Laerm;49838;51.798;10.954;2023-06-26T08:32:54;61.46;41.32;73.68;;
63692;Laerm;49838;51.798;10.954;2023-06-26T08:35:23;59.19;39.68;77.19;;
63692;Laerm;49838;51.798;10.954;2023-06-26T08:37:50;58.06;41.14;73.90;;
63692;Laerm;49838;51.798;10.954;2023-06-26T08:40:17;57.69;40.30;71.45;;
63692;Laerm;49838;51.798;10.954;2023-06-26T08:42:45;56.90;39.18;68.65;;
63692;Laerm;49838;51.798;10.954;2023-06-26T08:45:13;64.21;39.62;82.72;;
63692;Laerm;49838;51.798;10.954;2023-06-26T08:47:41;48.20;37.07;62.17;;
63692;Laerm;49838;51.798;10.954;2023-06-26T08:50:10;58.68;38.28;73.35;;
63692;Laerm;49838;51.798;10.954;2023-06-26T08:52:43;56.97;37.25;69.37;;
63692;Laerm;49838;51.798;10.954;2023-06-26T08:55:15;55.39;37.37;69.73;;
63692;Laerm;49838;51.798;10.954;2023-06-26T08:57:43;57.84;38.03;71.97;;
63692;Laerm;49838;51.798;10.954;2023-06-26T09:00:11;57.67;37.17;74.25;;
63692;Laerm;49838;51.798;10.954;2023-06-26T09:02:41;61.25;39.21;72.88;;
63692;Laerm;49838;51.798;10.954;2023-06-26T09:05:08;55.54;36.04;70.02;;
63692;Laerm;49838;51.798;10.954;2023-06-26T09:07:36;61.88;37.11;78.36;;
63692;Laerm;49838;51.798;10.954;2023-06-26T09:10:08;54.69;36.71;71.15;;
63692;Laerm;49838;51.798;10.954;2023-06-26T09:12:37;60.24;41.31;74.83;;
63692;Laerm;49838;51.798;10.954;2023-06-26T09:15:05;59.68;39.49;72.50;;
63692;Laerm;49838;51.798;10.954;2023-06-26T09:17:38;55.94;40.40;69.87;;
63692;Laerm;49838;51.798;10.954;2023-06-26T09:20:07;49.43;38.50;64.80;;
63692;Laerm;49838;51.798;10.954;2023-06-26T09:22:37;61.12;41.90;77.38;;
63692;Laerm;49838;51.798;10.954;2023-06-26T09:25:07;58.63;42.98;70.76;;
63692;Laerm;49838;51.798;10.954;2023-06-26T09:27:36;56.24;40.25;70.63;;
63692;Laerm;49838;51.798;10.954;2023-06-26T09:30:05;58.61;40.57;71.40;;
63692;Laerm;49838;51.798;10.954;2023-06-26T09:32:34;57.98;38.85;78.19;;
63692;Laerm;49838;51.798;10.954;2023-06-26T09:35:02;61.22;39.24;75.53;;
63692;Laerm;49838;51.798;10.954;2023-06-26T09:37:29;61.32;42.45;77.61;;
63692;Laerm;49838;51.798;10.954;2023-06-26T09:39:57;57.77;43.32;75.09;;
63692;Laerm;49838;51.798;10.954;2023-06-26T09:42:25;52.44;38.93;66.70;;
63692;Laerm;49838;51.798;10.954;2023-06-26T09:44:53;61.58;46.23;74.88;;
63692;Laerm;49838;51.798;10.954;2023-06-26T09:47:21;56.84;38.26;71.56;;
63692;Laerm;49838;51.798;10.954;2023-06-26T09:49:48;58.72;37.97;71.82;;
63692;Laerm;49838;51.798;10.954;2023-06-26T09:52:16;55.66;36.79;67.52;;
63692;Laerm;49838;51.798;10.954;2023-06-26T09:54:45;49.19;36.41;64.70;;
63692;Laerm;49838;51.798;10.954;2023-06-26T09:57:13;60.32;41.88;76.88;;
63692;Laerm;49838;51.798;10.954;2023-06-26T09:59:43;59.02;37.37;72.24;;
63692;Laerm;49838;51.798;10.954;2023-06-26T10:02:11;53.68;37.54;68.69;;
63692;Laerm;49838;51.798;10.954;2023-06-26T10:04:38;56.75;37.10;74.49;;
63692;Laerm;49838;51.798;10.954;2023-06-26T10:07:08;58.78;38.15;76.75;;
63692;Laerm;49838;51.798;10.954;2023-06-26T10:09:41;57.54;37.05;71.80;;
63692;Laerm;49838;51.798;10.954;2023-06-26T10:12:12;53.78;34.90;73.21;;
63692;Laerm;49838;51.798;10.954;2023-06-26T10:14:45;56.77;35.78;73.51;;
63692;Laerm;49838;51.798;10.954;2023-06-26T10:17:16;52.69;34.39;66.72;;
63692;Laerm;49838;51.798;10.954;2023-06-26T10:19:44;56.59;35.03;68.70;;
63692;Laerm;49838;51.798;10.954;2023-06-26T10:22:17;61.77;37.47;79.71;;
63692;Laerm;49838;51.798;10.954;2023-06-26T10:24:45;48.22;36.46;61.49;;
63692;Laerm;49838;51.798;10.954;2023-06-26T10:27:16;54.90;37.31;70.10;;
63692;Laerm;49838;51.798;10.954;2023-06-26T10:29:46;62.57;35.02;85.81;;
63692;Laerm;49838;51.798;10.954;2023-06-26T10:32:15;54.67;36.47;71.61;;
63692;Laerm;49838;51.798;10.954;2023-06-26T10:34:43;57.99;37.50;76.97;;
63692;Laerm;49838;51.798;10.954;2023-06-26T10:37:12;52.76;35.11;67.90;;
63692;Laerm;49838;51.798;10.954;2023-06-26T10:39:50;55.48;35.89;70.63;;
63692;Laerm;49838;51.798;10.954;2023-06-26T10:42:28;48.92;36.19;66.53;;
63692;Laerm;49838;51.798;10.954;2023-06-26T10:45:10;61.88;35.97;75.12;;
63692;Laerm;49838;51.798;10.954;2023-06-26T10:47:40;57.81;35.77;73.75;;
63692;Laerm;49838;51.798;10.954;2023-06-26T10:50:19;56.76;36.50;71.00;;
63692;Laerm;49838;51.798;10.954;2023-06-26T10:53:07;65.36;40.20;85.14;;
63692;Laerm;49838;51.798;10.954;2023-06-26T10:55:34;56.74;38.16;70.56;;
63692;Laerm;49838;51.798;10.954;2023-06-26T10:58:02;56.19;36.57;69.92;;
63692;Laerm;49838;51.798;10.954;2023-06-26T11:00:30;57.80;37.80;72.51;;
63692;Laerm;49838;51.798;10.954;2023-06-26T11:02:58;56.87;36.85;72.74;;
63692;Laerm;49838;51.798;10.954;2023-06-26T11:05:28;52.07;35.95;67.62;;
63692;Laerm;49838;51.798;10.954;2023-06-26T11:08:06;55.48;38.80;69.33;;
63692;Laerm;49838;51.798;10.954;2023-06-26T11:10:51;60.97;42.35;80.27;;
63692;Laerm;49838;51.798;10.954;2023-06-26T11:13:19;59.69;36.14;73.63;;
63692;Laerm;49838;51.798;10.954;2023-06-26T11:15:49;60.45;36.84;81.13;;
63692;Laerm;49838;51.798;10.954;2023-06-26T11:18:17;62.49;38.69;77.57;;
63692;Laerm;49838;51.798;10.954;2023-06-26T11:20:44;52.46;37.06;70.55;;
63692;Laerm;49838;51.798;10.954;2023-06-26T11:23:12;55.56;39.14;73.14;;
63692;Laerm;49838;51.798;10.954;2023-06-26T11:25:40;53.37;37.35;68.31;;
63692;Laerm;49838;51.798;10.954;2023-06-26T11:28:09;56.89;37.49;70.84;;
63692;Laerm;49838;51.798;10.954;2023-06-26T11:30:37;57.09;37.59;71.94;;
63692;Laerm;49838;51.798;10.954;2023-06-26T11:33:08;62.38;39.13;81.49;;
63692;Laerm;49838;51.798;10.954;2023-06-26T11:35:36;62.96;38.22;80.23;;
63692;Laerm;49838;51.798;10.954;2023-06-26T11:38:04;57.63;37.22;75.48;;
63692;Laerm;49838;51.798;10.954;2023-06-26T11:40:33;56.93;39.87;78.35;;
63692;Laerm;49838;51.798;10.954;2023-06-26T11:43:01;58.08;41.62;75.05;;
63692;Laerm;49838;51.798;10.954;2023-06-26T11:45:30;58.41;40.36;73.19;;
63692;Laerm;49838;51.798;10.954;2023-06-26T11:47:58;53.64;38.13;74.94;;
63692;Laerm;49838;51.798;10.954;2023-06-26T11:50:27;51.93;38.14;68.45;;
63692;Laerm;49838;51.798;10.954;2023-06-26T11:52:55;56.81;38.84;71.88;;
63692;Laerm;49838;51.798;10.954;2023-06-26T11:55:23;58.87;41.79;74.76;;
63692;Laerm;49838;51.798;10.954;2023-06-26T11:57:55;56.23;40.58;69.45;;
63692;Laerm;49838;51.798;10.954;2023-06-26T12:00:23;57.09;42.03;68.74;;
63692;Laerm;49838;51.798;10.954;2023-06-26T12:02:50;55.92;42.15;70.06;;
63692;Laerm;49838;51.798;10.954;2023-06-26T12:05:18;50.69;41.80;67.91;;
63692;Laerm;49838;51.798;10.954;2023-06-26T12:07:48;65.05;44.69;85.02;;
63692;Laerm;49838;51.798;10.954;2023-06-26T12:10:17;56.46;43.09;72.42;;
63692;Laerm;49838;51.798;10.954;2023-06-26T12:12:46;61.78;43.59;84.42;;
63692;Laerm;49838;51.798;10.954;2023-06-26T12:15:14;54.54;42.67;69.18;;
63692;Laerm;49838;51.798;10.954;2023-06-26T12:17:42;57.48;44.94;70.76;;
63692;Laerm;49838;51.798;10.954;2023-06-26T12:20:19;54.30;40.68;68.37;;
63692;Laerm;49838;51.798;10.954;2023-06-26T12:22:48;56.60;45.29;70.66;;
63692;Laerm;49838;51.798;10.954;2023-06-26T12:25:21;63.15;43.91;79.91;;
63692;Laerm;49838;51.798;10.954;2023-06-26T12:27:49;52.21;41.53;68.39;;
63692;Laerm;49838;51.798;10.954;2023-06-26T12:30:16;52.06;42.64;67.66;;
63692;Laerm;49838;51.798;10.954;2023-06-26T12:32:44;59.71;45.17;75.45;;
63692;Laerm;49838;51.798;10.954;2023-06-26T12:35:12;58.56;46.74;71.97;;
63692;Laerm;49838;51.798;10.954;2023-06-26T12:37:42;60.74;48.46;77.26;;
63692;Laerm;49838;51.798;10.954;2023-06-26T12:40:19;60.42;49.60;72.96;;
63692;Laerm;49838;51.798;10.954;2023-06-26T12:42:48;59.75;50.34;73.91;;
63692;Laerm;49838;51.798;10.954;2023-06-26T12:45:15;63.29;50.63;76.47;;
63692;Laerm;49838;51.798;10.954;2023-06-26T12:47:43;64.99;49.84;76.13;;
63692;Laerm;49838;51.798;10.954;2023-06-26T12:50:11;66.54;52.77;78.94;;
63692;Laerm;49838;51.798;10.954;2023-06-26T12:52:39;63.34;48.75;77.93;;
63692;Laerm;49838;51.798;10.954;2023-06-26T12:55:07;63.40;48.90;78.14;;
63692;Laerm;49838;51.798;10.954;2023-06-26T12:57:35;59.04;47.59;77.32;;
63692;Laerm;49838;51.798;10.954;2023-06-26T13:00:03;62.70;45.03;76.82;;
63692;Laerm;49838;51.798;10.954;2023-06-26T13:02:31;62.34;43.33;78.02;;
63692;Laerm;49838;51.798;10.954;2023-06-26T13:04:58;62.99;41.42;76.18;;
63692;Laerm;49838;51.798;10.954;2023-06-26T13:07:25;60.74;41.88;76.97;;
63692;Laerm;49838;51.798;10.954;2023-06-26T13:09:53;60.46;39.83;78.54;;
63692;Laerm;49838;51.798;10.954;2023-06-26T13:12:21;62.75;40.96;77.72;;
63692;Laerm;49838;51.798;10.954;2023-06-26T13:14:50;58.81;39.51;72.52;;
63692;Laerm;49838;51.798;10.954;2023-06-26T13:17:18;61.62;40.16;75.26;;
63692;Laerm;49838;51.798;10.954;2023-06-26T13:19:45;61.13;37.86;79.60;;
63692;Laerm;49838;51.798;10.954;2023-06-26T13:22:12;54.55;38.50;72.79;;
63692;Laerm;49838;51.798;10.954;2023-06-26T13:24:39;63.22;46.11;77.92;;
63692;Laerm;49838;51.798;10.954;2023-06-26T13:27:07;63.52;43.19;84.55;;
63692;Laerm;49838;51.798;10.954;2023-06-26T13:29:37;58.76;38.53;75.19;;
63692;Laerm;49838;51.798;10.954;2023-06-26T13:32:08;62.64;40.23;83.42;;
63692;Laerm;49838;51.798;10.954;2023-06-26T13:34:35;60.14;40.63;78.98;;
63692;Laerm;49838;51.798;10.954;2023-06-26T13:37:02;58.55;38.88;70.40;;
63692;Laerm;49838;51.798;10.954;2023-06-26T13:39:30;58.76;39.77;75.41;;